createdAt,value
2019-02-26T00:01:48.529Z,7.70
2019-02-26T00:04:21.036Z,7.70
2019-02-26T00:06:55.796Z,7.70
2019-02-26T00:09:30.526Z,7.60
2019-02-26T00:12:02.993Z,7.60
2019-02-26T00:14:35.638Z,7.60
2019-02-26T00:17:10.572Z,7.60
2019-02-26T00:19:42.661Z,7.50
2019-02-26T00:22:15.979Z,7.50
2019-02-26T00:24:49.674Z,7.50
2019-02-26T00:27:23.441Z,7.50
2019-02-26T00:29:56.692Z,7.50
2019-02-26T00:32:29.946Z,7.50
2019-02-26T00:35:04.319Z,7.50
2019-02-26T00:37:37.119Z,7.40
2019-02-26T00:40:10.465Z,7.40
2019-02-26T00:42:44.173Z,7.40
2019-02-26T00:45:16.814Z,7.40
2019-02-26T00:47:49.460Z,7.40
2019-02-26T00:50:22.122Z,7.40
2019-02-26T00:52:57.097Z,7.40
2019-02-26T00:55:29.821Z,7.40
2019-02-26T00:58:05.690Z,7.40
2019-02-26T01:00:38.050Z,7.40
2019-02-26T01:03:11.534Z,7.40
2019-02-26T01:05:45.399Z,7.40
2019-02-26T01:08:19.855Z,7.40
2019-02-26T01:10:52.713Z,7.40
2019-02-26T01:13:27.642Z,7.30
2019-02-26T01:15:59.709Z,7.30
2019-02-26T01:18:32.445Z,7.30
2019-02-26T01:21:05.069Z,7.40
2019-02-26T01:23:37.715Z,7.40
2019-02-26T01:26:12.128Z,7.40
2019-02-26T01:28:48.240Z,7.40
2019-02-26T01:31:19.829Z,7.30
2019-02-26T01:33:55.214Z,7.30
2019-02-26T01:36:27.862Z,7.30
2019-02-26T01:39:00.516Z,7.20
2019-02-26T01:41:54.072Z,7.20
2019-02-26T01:44:30.177Z,7.20
2019-02-26T01:47:04.242Z,7.10
2019-02-26T01:49:35.689Z,7.10
2019-02-26T01:52:10.225Z,7.00
2019-02-26T01:54:42.711Z,6.90
2019-02-26T01:57:17.313Z,6.90
2019-02-26T01:59:50.223Z,6.80
2019-02-26T02:02:25.266Z,6.80
2019-02-26T02:04:59.583Z,6.80
2019-02-26T02:07:32.086Z,6.80
2019-02-26T02:36:17.687Z,6.70
2019-02-26T02:38:50.882Z,6.60
2019-02-26T02:41:23.506Z,6.60
2019-02-26T02:43:56.170Z,6.60
2019-02-26T02:46:28.832Z,6.60
2019-02-26T02:49:02.232Z,6.60
2019-02-26T02:51:37.142Z,6.60
2019-02-26T02:54:12.228Z,6.50
2019-02-26T02:56:44.608Z,6.50
2019-02-26T02:59:17.257Z,6.50
2019-02-26T03:01:52.726Z,6.50
2019-02-26T03:04:48.467Z,6.50
2019-02-26T03:07:23.421Z,6.50
2019-02-26T03:09:55.534Z,6.50
2019-02-26T03:12:28.178Z,6.40
2019-02-26T03:15:02.243Z,6.50
2019-02-26T03:17:35.274Z,6.50
2019-02-26T03:20:10.139Z,6.40
2019-02-26T03:22:46.643Z,6.40
2019-02-26T03:25:20.833Z,6.40
2019-02-26T03:27:51.771Z,6.40
2019-02-26T03:30:31.895Z,6.30
2019-02-26T03:33:04.117Z,6.30
2019-02-26T03:35:33.308Z,6.30
2019-02-26T03:38:05.961Z,6.30
2019-02-26T03:40:38.664Z,6.30
2019-02-26T03:43:13.125Z,6.30
2019-02-26T03:45:48.050Z,6.30
2019-02-26T03:48:20.525Z,6.20
2019-02-26T03:50:53.431Z,6.20
2019-02-26T03:53:30.170Z,6.20
2019-02-26T03:56:04.239Z,6.10
2019-02-26T03:58:34.877Z,6.10
2019-02-26T04:01:10.238Z,6.10
2019-02-26T04:03:42.547Z,6.10
2019-02-26T04:06:15.280Z,6.10
2019-02-26T04:08:50.347Z,6.00
2019-02-26T04:11:24.863Z,6.00
2019-02-26T04:13:56.851Z,6.00
2019-02-26T04:16:30.297Z,6.10
2019-02-26T04:19:05.868Z,6.10
2019-02-26T04:22:15.878Z,6.10
2019-02-26T04:24:50.022Z,6.10
2019-02-26T04:28:01.247Z,6.10
2019-02-26T04:31:02.821Z,6.10
2019-02-26T04:34:12.864Z,6.00
2019-02-26T04:37:10.971Z,6.00
2019-02-26T04:40:30.292Z,6.00
2019-02-26T04:43:52.034Z,5.90
2019-02-26T04:46:44.149Z,5.90
2019-02-26T04:49:16.829Z,5.90
2019-02-26T04:51:50.550Z,5.90
2019-02-26T04:54:26.334Z,5.90
2019-02-26T04:56:57.869Z,5.80
2019-02-26T04:59:32.313Z,5.80
2019-02-26T05:02:04.939Z,5.80
2019-02-26T05:04:40.064Z,5.70
2019-02-26T05:07:14.055Z,5.70
2019-02-26T05:09:47.585Z,5.70
2019-02-26T05:12:20.827Z,5.70
2019-02-26T05:14:53.491Z,5.70
2019-02-26T05:17:27.910Z,5.80
2019-02-26T05:20:00.531Z,5.80
2019-02-26T05:22:33.445Z,5.80
2019-02-26T05:25:07.338Z,5.80
2019-02-26T05:27:44.664Z,5.70
2019-02-26T05:30:17.244Z,5.70
2019-02-26T05:32:51.947Z,5.70
2019-02-26T05:35:25.332Z,5.60
2019-02-26T05:38:00.880Z,5.70
2019-02-26T05:40:32.482Z,5.70
2019-02-26T05:43:06.781Z,5.60
2019-02-26T05:45:39.644Z,5.60
2019-02-26T05:48:13.222Z,5.60
2019-02-26T05:50:47.019Z,5.50
2019-02-26T05:53:19.696Z,5.50
2019-02-26T05:55:54.192Z,5.40
2019-02-26T05:58:26.751Z,5.50
2019-02-26T06:00:59.423Z,5.40
2019-02-26T06:03:32.097Z,5.50
2019-02-26T06:06:04.756Z,5.50
2019-02-26T06:08:39.280Z,5.40
2019-02-26T06:11:11.819Z,5.40
2019-02-26T06:13:44.495Z,5.40
2019-02-26T06:16:19.162Z,5.40
2019-02-26T06:18:52.604Z,5.40
2019-02-26T06:21:26.217Z,5.40
2019-02-26T06:23:59.073Z,5.40
2019-02-26T06:26:35.102Z,5.40
2019-02-26T06:29:06.152Z,5.40
2019-02-26T06:31:40.093Z,5.40
2019-02-26T06:34:14.359Z,5.40
2019-02-26T06:36:48.879Z,5.50
2019-02-26T06:39:24.196Z,5.50
2019-02-26T06:41:56.440Z,5.50
2019-02-26T06:44:29.127Z,5.50
2019-02-26T06:47:02.627Z,5.60
2019-02-26T06:49:36.448Z,5.60
2019-02-26T06:52:10.815Z,5.70
2019-02-26T06:54:47.752Z,5.70
2019-02-26T06:57:17.989Z,5.80
2019-02-26T06:59:51.420Z,5.90
2019-02-26T07:02:28.150Z,6.00
2019-02-26T07:04:59.515Z,6.10
2019-02-26T07:07:32.195Z,6.10
2019-02-26T07:10:05.952Z,6.20
2019-02-26T07:12:40.533Z,6.20
2019-02-26T07:15:13.436Z,6.20
2019-02-26T07:17:46.399Z,6.30
2019-02-26T07:20:19.184Z,6.30
2019-02-26T07:22:51.981Z,6.40
2019-02-26T07:25:24.681Z,6.40
2019-02-26T07:27:58.904Z,6.50
2019-02-26T07:30:32.655Z,6.60
2019-02-26T07:33:08.030Z,6.70
2019-02-26T07:35:40.643Z,6.80
2019-02-26T07:38:13.308Z,6.80
2019-02-26T07:40:45.977Z,6.90
2019-02-26T07:43:20.071Z,7.00
2019-02-26T07:45:53.312Z,7.20
2019-02-26T07:48:28.934Z,7.50
2019-02-26T07:51:00.802Z,7.90
2019-02-26T07:53:33.499Z,8.30
2019-02-26T07:56:06.711Z,8.80
2019-02-26T07:58:41.256Z,9.10
2019-02-26T08:01:14.955Z,9.50
2019-02-26T08:03:48.863Z,9.60
2019-02-26T08:06:22.023Z,9.40
2019-02-26T08:08:54.699Z,9.10
2019-02-26T08:11:27.359Z,8.90
2019-02-26T08:14:01.561Z,8.70
2019-02-26T08:16:34.429Z,8.60
2019-02-26T08:19:07.107Z,8.50
2019-02-26T08:21:39.805Z,8.40
2019-02-26T08:24:14.757Z,8.40
2019-02-26T08:26:47.555Z,8.40
2019-02-26T08:29:21.271Z,8.40
2019-02-26T08:31:56.827Z,8.40
2019-02-26T08:34:29.075Z,8.50
2019-02-26T08:37:01.776Z,8.50
2019-02-26T08:39:35.695Z,8.50
2019-02-26T08:42:10.145Z,8.60
2019-02-26T08:44:46.190Z,8.60
2019-02-26T08:47:19.128Z,8.70
2019-02-26T08:49:51.908Z,8.70
2019-02-26T08:52:26.919Z,8.80
2019-02-26T08:54:59.813Z,8.80
2019-02-26T08:57:32.487Z,8.80
2019-02-26T09:00:08.212Z,8.90
2019-02-26T09:02:43.098Z,9.00
2019-02-26T09:05:15.262Z,9.00
2019-02-26T09:07:50.397Z,9.10
2019-02-26T09:10:23.393Z,9.20
2019-02-26T09:12:56.233Z,9.30
2019-02-26T09:15:30.942Z,9.40
2019-02-26T09:18:03.293Z,9.50
2019-02-26T09:20:35.948Z,9.60
2019-02-26T09:23:08.630Z,9.70
2019-02-26T09:25:41.308Z,9.70
2019-02-26T09:28:14.005Z,9.80
2019-02-26T09:30:46.666Z,9.80
2019-02-26T09:33:19.347Z,9.90
2019-02-26T09:35:52.591Z,10.00
2019-02-26T09:38:26.686Z,10.00
2019-02-26T09:40:59.515Z,10.10
2019-02-26T09:43:32.196Z,10.10
2019-02-26T09:46:08.576Z,10.20
2019-02-26T09:48:42.912Z,10.30
2019-02-26T09:51:14.807Z,10.30
2019-02-26T09:53:50.253Z,10.50
2019-02-26T09:56:22.815Z,10.50
2019-02-26T09:58:55.486Z,10.60
2019-02-26T10:01:28.147Z,10.60
2019-02-26T10:04:02.726Z,10.70
2019-02-26T10:06:37.375Z,10.70
2019-02-26T10:09:11.309Z,10.80
2019-02-26T10:11:45.205Z,10.90
2019-02-26T10:14:18.497Z,10.90
2019-02-26T10:16:52.414Z,11.00
2019-02-26T10:19:25.587Z,11.00
2019-02-26T10:22:00.318Z,11.10
2019-02-26T10:24:34.725Z,11.20
2019-02-26T10:27:09.328Z,11.30
2019-02-26T10:29:42.775Z,11.40
2019-02-26T10:32:16.008Z,11.40
2019-02-26T10:34:48.748Z,11.50
2019-02-26T10:37:21.421Z,11.60
2019-02-26T10:39:54.927Z,11.70
2019-02-26T10:42:28.217Z,11.70
2019-02-26T10:45:00.899Z,11.80
2019-02-26T10:47:34.655Z,11.80
2019-02-26T10:50:13.618Z,11.90
2019-02-26T10:52:47.072Z,11.90
2019-02-26T10:55:21.915Z,12.00
2019-02-26T10:57:55.369Z,12.00
2019-02-26T11:00:33.752Z,12.10
2019-02-26T11:03:03.305Z,12.20
2019-02-26T11:05:39.156Z,12.20
2019-02-26T11:08:10.374Z,12.30
2019-02-26T11:10:44.907Z,12.30
2019-02-26T11:13:18.208Z,12.40
2019-02-26T11:15:53.959Z,12.50
2019-02-26T11:18:26.307Z,12.60
2019-02-26T11:20:59.371Z,12.60
2019-02-26T11:23:34.561Z,12.70
2019-02-26T11:26:09.535Z,12.80
2019-02-26T11:28:42.884Z,12.90
2019-02-26T11:31:16.632Z,12.90
2019-02-26T11:33:49.904Z,13.10
2019-02-26T11:36:22.622Z,13.10
2019-02-26T11:38:55.327Z,13.10
2019-02-26T11:41:29.241Z,13.10
2019-02-26T11:44:07.163Z,13.10
2019-02-26T11:46:36.852Z,13.20
2019-02-26T11:49:11.829Z,13.30
2019-02-26T11:51:43.947Z,13.40
2019-02-26T11:54:17.674Z,13.50
2019-02-26T11:56:52.381Z,13.60
2019-02-26T11:59:24.970Z,13.70
2019-02-26T12:01:59.101Z,13.70
2019-02-26T12:04:33.574Z,13.80
2019-02-26T12:09:41.303Z,13.80
2019-02-26T12:12:15.161Z,13.90
2019-02-26T12:14:48.438Z,13.90
2019-02-26T12:17:21.425Z,14.10
2019-02-26T12:19:55.835Z,14.20
2019-02-26T12:28:34.150Z,14.40
2019-02-26T12:31:06.584Z,14.40
2019-02-26T12:33:38.629Z,14.50
2019-02-26T12:36:12.395Z,14.70
2019-02-26T12:38:47.165Z,14.70
2019-02-26T12:41:21.015Z,14.80
2019-02-26T12:43:53.686Z,14.90
2019-02-26T12:46:27.540Z,15.10
2019-02-26T12:49:02.882Z,15.20
2019-02-26T12:51:35.446Z,15.30
2019-02-26T12:54:10.031Z,15.40
2019-02-26T12:56:42.686Z,15.50
2019-02-26T12:59:15.324Z,15.70
2019-02-26T13:01:49.301Z,15.70
2019-02-26T13:04:24.932Z,15.70
2019-02-26T13:06:56.854Z,15.70
2019-02-26T13:09:29.527Z,15.70
2019-02-26T13:14:36.642Z,15.70
2019-02-26T13:24:28.899Z,15.80
2019-02-26T13:27:01.550Z,15.90
2019-02-26T13:29:34.176Z,15.90
2019-02-26T14:46:42.878Z,16.50
2019-02-26T14:49:15.527Z,16.50
2019-02-26T14:51:48.194Z,16.50
2019-02-26T14:54:20.843Z,16.50
2019-02-26T14:56:53.474Z,16.50
2019-02-26T14:59:26.215Z,16.60
2019-02-26T15:01:58.845Z,16.60
2019-02-26T15:04:31.477Z,16.60
2019-02-26T15:07:04.169Z,16.70
2019-02-26T15:09:37.178Z,16.60
2019-02-26T15:12:09.858Z,16.60
2019-02-26T15:14:42.509Z,16.60
2019-02-26T15:17:15.143Z,16.60
2019-02-26T15:19:51.305Z,16.70
2019-02-26T15:22:22.186Z,16.80
2019-02-26T15:24:54.858Z,16.90
2019-02-26T15:27:35.930Z,16.80
2019-02-26T15:30:01.861Z,16.80
2019-02-26T15:32:34.491Z,16.80
2019-02-26T15:35:07.191Z,16.80
2019-02-26T15:37:39.822Z,16.70
2019-02-26T15:40:12.806Z,16.70
2019-02-26T15:42:45.443Z,16.70
2019-02-26T15:45:19.410Z,16.70
2019-02-26T15:47:52.450Z,16.70
2019-02-26T15:50:25.090Z,16.70
2019-02-26T15:52:57.726Z,16.70
2019-02-26T15:55:30.389Z,16.70
2019-02-26T15:58:05.214Z,16.70
2019-02-26T16:00:38.433Z,16.70
2019-02-26T16:03:11.555Z,16.70
2019-02-26T16:05:44.208Z,16.70
2019-02-26T16:08:16.835Z,16.70
2019-02-26T16:10:49.511Z,16.60
2019-02-26T16:13:22.146Z,16.60
2019-02-26T16:15:54.788Z,16.60
2019-02-26T16:18:27.610Z,16.50
2019-02-26T16:21:01.802Z,16.50
2019-02-26T16:23:34.436Z,16.50
2019-02-26T16:26:08.714Z,16.40
2019-02-26T16:28:41.361Z,16.40
2019-02-26T16:31:13.984Z,16.40
2019-02-26T16:33:46.802Z,16.30
2019-02-26T16:36:20.147Z,16.30
2019-02-26T16:38:52.791Z,16.20
2019-02-26T16:41:25.449Z,16.20
2019-02-26T16:43:58.077Z,16.20
2019-02-26T16:46:31.129Z,16.20
2019-02-26T16:49:03.748Z,16.20
2019-02-26T16:51:36.403Z,16.10
2019-02-26T16:54:09.026Z,16.00
2019-02-26T16:56:41.863Z,16.00
2019-02-26T16:59:14.514Z,15.90
2019-02-26T17:01:47.170Z,15.80
2019-02-26T17:04:19.830Z,15.70
2019-02-26T17:06:53.954Z,15.70
2019-02-26T17:09:27.265Z,15.60
2019-02-26T17:11:59.956Z,15.50
2019-02-26T17:14:32.598Z,15.40
2019-02-26T17:17:05.432Z,15.30
2019-02-26T17:19:38.071Z,15.20
2019-02-26T17:22:10.776Z,15.10
2019-02-26T17:24:43.398Z,15.00
2019-02-26T17:27:16.325Z,14.90
2019-02-26T17:29:49.721Z,14.90
2019-02-26T17:32:22.802Z,14.80
2019-02-26T17:34:55.767Z,14.80
2019-02-26T17:37:28.977Z,14.80
2019-02-26T17:40:03.269Z,14.70
2019-02-26T17:42:36.032Z,14.70
2019-02-26T17:45:11.071Z,14.60
2019-02-26T17:47:43.751Z,14.50
2019-02-26T17:50:19.471Z,14.50
2019-02-26T17:52:52.139Z,14.50
2019-02-26T17:55:24.829Z,14.40
2019-02-26T17:57:57.548Z,14.30
2019-02-26T18:00:30.218Z,14.20
2019-02-26T18:03:06.459Z,14.20
2019-02-26T18:05:43.336Z,14.10
2019-02-26T18:08:11.675Z,14.00
2019-02-26T18:10:44.330Z,14.00
2019-02-26T18:13:20.421Z,13.90
2019-02-26T18:15:51.461Z,13.80
2019-02-26T18:18:24.156Z,13.80
2019-02-26T18:20:56.773Z,13.70
2019-02-26T18:23:29.414Z,13.70
2019-02-26T18:26:02.046Z,13.60
2019-02-26T18:28:36.667Z,13.60
2019-02-26T18:31:09.150Z,13.50
2019-02-26T18:33:41.803Z,13.50
2019-02-26T18:36:14.449Z,13.40
2019-02-26T18:38:48.668Z,13.40
2019-02-26T18:41:21.514Z,13.30
2019-02-26T18:44:02.850Z,13.20
2019-02-26T18:46:37.771Z,13.10
2019-02-26T18:49:10.542Z,13.00
2019-02-26T18:51:49.856Z,13.00
2019-02-26T18:54:22.563Z,12.90
2019-02-26T18:56:55.206Z,12.90
2019-02-26T18:59:27.849Z,12.80
2019-02-26T19:02:03.352Z,12.70
2019-02-26T19:04:34.899Z,12.70
2019-02-26T19:07:07.538Z,12.60
2019-02-26T19:09:40.186Z,12.50
2019-02-26T19:12:12.834Z,12.40
2019-02-26T19:14:45.497Z,12.30
2019-02-26T19:17:18.138Z,12.20
2019-02-26T19:19:50.784Z,12.20
2019-02-26T19:22:26.512Z,12.10
2019-02-26T19:24:57.791Z,12.10
2019-02-26T19:27:30.446Z,12.10
2019-02-26T19:30:04.574Z,12.00
2019-02-26T19:32:37.882Z,12.00
2019-02-26T19:35:12.467Z,11.90
2019-02-26T19:37:45.440Z,11.90
2019-02-26T19:40:19.638Z,11.80
2019-02-26T19:42:52.909Z,11.80
2019-02-26T19:45:26.099Z,11.70
2019-02-26T19:47:58.759Z,11.70
2019-02-26T19:50:31.391Z,11.70
2019-02-26T19:53:04.042Z,11.70
2019-02-26T19:55:36.970Z,11.60
2019-02-26T19:58:09.883Z,11.60
2019-02-26T20:00:42.585Z,11.50
2019-02-26T20:03:15.210Z,11.50
2019-02-26T20:05:47.871Z,11.40
2019-02-26T20:08:20.515Z,11.40
2019-02-26T20:10:54.073Z,11.30
2019-02-26T20:13:26.971Z,11.30
2019-02-26T20:15:59.619Z,11.20
2019-02-26T20:18:32.276Z,11.20
2019-02-26T20:21:04.931Z,11.10
2019-02-26T20:23:37.558Z,11.10
2019-02-26T20:26:10.197Z,11.10
2019-02-26T20:28:42.831Z,11.00
2019-02-26T20:31:15.483Z,11.00
2019-02-26T20:33:48.165Z,11.00
2019-02-26T20:36:20.828Z,10.90
2019-02-26T20:38:53.594Z,10.90
2019-02-26T20:41:26.264Z,10.80
2019-02-26T20:43:59.020Z,10.80
2019-02-26T20:46:31.669Z,10.80
2019-02-26T20:49:04.398Z,10.80
2019-02-26T20:51:37.042Z,10.80
2019-02-26T20:54:11.694Z,10.80
2019-02-26T20:56:44.869Z,10.80
2019-02-26T20:59:18.061Z,10.80
2019-02-26T21:01:51.315Z,10.80
2019-02-26T21:04:23.959Z,10.80
2019-02-26T21:06:56.590Z,10.80
2019-02-26T21:09:29.267Z,10.80
2019-02-26T21:12:02.000Z,10.70
2019-02-26T21:14:34.719Z,10.70
2019-02-26T21:17:07.371Z,10.70
2019-02-26T21:19:40.000Z,10.60
2019-02-26T21:22:12.643Z,10.60
2019-02-26T21:24:45.308Z,10.60
2019-02-26T21:27:17.967Z,10.60
2019-02-26T21:29:50.615Z,10.60
2019-02-26T21:32:25.672Z,10.50
2019-02-26T21:34:57.617Z,10.50
2019-02-26T21:37:32.676Z,10.40
2019-02-26T21:40:04.742Z,10.40
2019-02-26T21:42:37.410Z,10.30
2019-02-26T21:45:12.964Z,10.30
2019-02-26T21:47:45.368Z,10.20
2019-02-26T21:50:22.036Z,10.20
2019-02-26T21:52:59.848Z,10.10
2019-02-26T21:55:26.744Z,10.10
2019-02-26T21:57:59.387Z,10.00
2019-02-26T22:00:32.038Z,10.00
2019-02-26T22:03:04.691Z,9.90
2019-02-26T22:05:37.914Z,9.90
2019-02-26T22:08:11.048Z,9.80
2019-02-26T22:10:43.703Z,9.80
2019-02-26T22:13:17.659Z,9.80
2019-02-26T22:15:50.454Z,9.70
2019-02-26T22:18:23.099Z,9.70
2019-02-26T22:20:55.791Z,9.70
2019-02-26T22:23:29.400Z,9.70
2019-02-26T22:26:02.190Z,9.60
2019-02-26T22:28:34.819Z,9.60
2019-02-26T22:31:07.473Z,9.60
2019-02-26T22:33:40.768Z,9.60
2019-02-26T22:36:14.459Z,9.60
2019-02-26T22:38:49.156Z,9.50
2019-02-26T22:41:21.499Z,9.50
2019-02-26T22:43:54.150Z,9.40
2019-02-26T22:46:26.794Z,9.40
2019-02-26T22:48:59.410Z,9.40
2019-02-26T22:51:32.056Z,9.40
2019-02-26T22:54:04.682Z,9.30
2019-02-26T22:56:37.322Z,9.30
2019-02-26T22:59:09.963Z,9.30
2019-02-26T23:01:42.602Z,9.20
2019-02-26T23:04:19.310Z,9.30
2019-02-26T23:06:49.591Z,9.30
2019-02-26T23:09:22.224Z,9.30
2019-02-26T23:11:54.895Z,9.30
2019-02-26T23:14:27.530Z,9.20
2019-02-26T23:17:00.163Z,9.20
2019-02-26T23:19:36.447Z,9.20
2019-02-26T23:22:07.146Z,9.20
2019-02-26T23:24:39.870Z,9.10
2019-02-26T23:27:14.878Z,9.10
2019-02-26T23:29:46.859Z,9.10
2019-02-26T23:32:19.488Z,9.10
2019-02-26T23:35:02.612Z,9.00
2019-02-26T23:37:35.354Z,9.00
2019-02-26T23:40:08.131Z,9.00
2019-02-26T23:42:40.763Z,8.90
2019-02-26T23:45:13.483Z,8.90
2019-02-26T23:47:46.119Z,8.80
2019-02-26T23:50:18.837Z,8.80
2019-02-26T23:52:51.538Z,8.80
2019-02-26T23:55:24.455Z,8.70
2019-02-26T23:57:57.909Z,8.70
